CFG7ZP EDDM-LICA
Flight info
| Callsign | CFG7ZP |
|---|---|
| Flight time | 1h 34m |
| Altitude | 37000 |
| Route | VAVOR3S/26L VAVOR Y106 MODSA DCT DETSA DCT ANC DCT EKMIL DCT GOSEB DCT GALTI DCT EVINO DCT ARBUM |
| Aircraft | A320/M-SDE3FGHIJ1LORVWXYZ/LB1 |
Departure
| Time | 2026-05-06 16:52 |
|---|---|
| Airport | Munich Airport (EDDM) |
Arrival
| Time | 2026-05-06 18:27 |
|---|---|
| Airport | Lamezia Terme Sant'Eufemia International Airport (LICA) |
| Time | Latitude | Longitude | Altitude | Speed | Heading |
|---|---|---|---|---|---|
| 2026-05-06 16:26 | 48.35131 | 11.78342 | 1485 ft | 0 kts | 83° |
| 2026-05-06 16:36 | 48.35130 | 11.78337 | 1485 ft | 3 kts | 83° |
| 2026-05-06 16:36 | 48.35127 | 11.78298 | 1472 ft | 4 kts | 83° |
| 2026-05-06 16:36 | 48.35124 | 11.78257 | 1485 ft | 4 kts | 83° |
| 2026-05-06 16:37 | 48.35122 | 11.78225 | 1481 ft | 4 kts | 77° |
| 2026-05-06 16:37 | 48.35110 | 11.78192 | 1476 ft | 4 kts | 33° |
| 2026-05-06 16:37 | 48.35087 | 11.78180 | 1485 ft | 4 kts | 355° |
| 2026-05-06 16:37 | 48.35065 | 11.78183 | 1485 ft | 1 kts | 353° |
| 2026-05-06 16:38 | 48.35065 | 11.78184 | 1485 ft | 0 kts | 353° |
| 2026-05-06 16:42 | 48.35071 | 11.78183 | 1475 ft | 3 kts | 353° |
| 2026-05-06 16:42 | 48.35110 | 11.78176 | 1485 ft | 8 kts | 353° |
| 2026-05-06 16:42 | 48.35182 | 11.78157 | 1475 ft | 11 kts | 332° |
| 2026-05-06 16:42 | 48.35196 | 11.78063 | 1481 ft | 9 kts | 265° |
| 2026-05-06 16:43 | 48.35189 | 11.77957 | 1485 ft | 11 kts | 263° |
| 2026-05-06 16:43 | 48.35178 | 11.77857 | 1483 ft | 9 kts | 248° |
| 2026-05-06 16:43 | 48.35126 | 11.77821 | 1475 ft | 9 kts | 175° |
| 2026-05-06 16:43 | 48.35048 | 11.77834 | 1478 ft | 13 kts | 173° |
| 2026-05-06 16:44 | 48.34946 | 11.77853 | 1485 ft | 14 kts | 173° |
| 2026-05-06 16:44 | 48.34879 | 11.77865 | 1485 ft | 0 kts | 173° |
| 2026-05-06 16:44 | 48.34862 | 11.77868 | 1480 ft | 5 kts | 173° |
| 2026-05-06 16:45 | 48.34832 | 11.77872 | 1478 ft | 2 kts | 174° |
| 2026-05-06 16:45 | 48.34830 | 11.77872 | 1485 ft | 0 kts | 174° |
| 2026-05-06 16:46 | 48.34825 | 11.77873 | 1474 ft | 5 kts | 174° |
| 2026-05-06 16:46 | 48.34758 | 11.77884 | 1485 ft | 11 kts | 172° |
| 2026-05-06 16:47 | 48.34691 | 11.77901 | 1473 ft | 9 kts | 158° |
| 2026-05-06 16:47 | 48.34671 | 11.78004 | 1480 ft | 13 kts | 82° |
| 2026-05-06 16:47 | 48.34682 | 11.78142 | 1473 ft | 14 kts | 84° |
| 2026-05-06 16:47 | 48.34693 | 11.78293 | 1485 ft | 15 kts | 84° |
| 2026-05-06 16:48 | 48.34706 | 11.78457 | 1485 ft | 16 kts | 83° |
| 2026-05-06 16:48 | 48.34720 | 11.78633 | 1485 ft | 17 kts | 84° |
| 2026-05-06 16:48 | 48.34733 | 11.78818 | 1485 ft | 18 kts | 84° |
| 2026-05-06 16:48 | 48.34748 | 11.79013 | 1485 ft | 19 kts | 83° |
| 2026-05-06 16:49 | 48.34765 | 11.79217 | 1485 ft | 20 kts | 83° |
| 2026-05-06 16:49 | 48.34781 | 11.79430 | 1485 ft | 21 kts | 83° |
| 2026-05-06 16:49 | 48.34793 | 11.79578 | 1479 ft | 21 kts | 83° |
| 2026-05-06 16:49 | 48.34810 | 11.79802 | 1483 ft | 22 kts | 83° |
| 2026-05-06 16:50 | 48.34828 | 11.80025 | 1479 ft | 15 kts | 83° |
| 2026-05-06 16:50 | 48.34804 | 11.80177 | 1475 ft | 16 kts | 129° |
| 2026-05-06 16:50 | 48.34707 | 11.80245 | 1481 ft | 16 kts | 172° |
| 2026-05-06 16:50 | 48.34598 | 11.80266 | 1485 ft | 16 kts | 173° |
| 2026-05-06 16:51 | 48.34488 | 11.80262 | 1473 ft | 15 kts | 210° |
| 2026-05-06 16:51 | 48.34457 | 11.80155 | 1485 ft | 0 kts | 265° |
| 2026-05-06 16:51 | 48.34455 | 11.80131 | 1485 ft | 19 kts | 262° |
| 2026-05-06 16:51 | 48.34408 | 11.79528 | 1479 ft | 93 kts | 263° |
| 2026-05-06 16:52 | 48.34311 | 11.78260 | 1486 ft | 149 kts | 263° |
| 2026-05-06 16:52 | 48.34167 | 11.76456 | 1594 ft | 182 kts | 264° |
| 2026-05-06 16:52 | 48.34028 | 11.74645 | 2388 ft | 174 kts | 265° |
| 2026-05-06 16:52 | 48.33865 | 11.72809 | 2905 ft | 187 kts | 252° |
| 2026-05-06 16:53 | 48.33042 | 11.71250 | 3242 ft | 203 kts | 206° |
| 2026-05-06 16:53 | 48.31615 | 11.70838 | 3578 ft | 220 kts | 180° |
| 2026-05-06 16:53 | 48.30048 | 11.70818 | 4180 ft | 230 kts | 179° |
| 2026-05-06 16:53 | 48.28487 | 11.71242 | 4954 ft | 228 kts | 155° |
| 2026-05-06 16:54 | 48.27106 | 11.72470 | 5436 ft | 246 kts | 146° |
| 2026-05-06 16:54 | 48.25624 | 11.73974 | 5815 ft | 269 kts | 146° |
| 2026-05-06 16:54 | 48.24043 | 11.75601 | 6598 ft | 272 kts | 146° |
| 2026-05-06 16:54 | 48.22498 | 11.77173 | 7433 ft | 273 kts | 147° |
| 2026-05-06 16:55 | 48.20895 | 11.78807 | 8243 ft | 278 kts | 148° |
| 2026-05-06 16:55 | 48.19281 | 11.80432 | 9077 ft | 280 kts | 149° |
| 2026-05-06 16:55 | 48.17733 | 11.82218 | 9915 ft | 285 kts | 138° |
| 2026-05-06 16:55 | 48.16399 | 11.84531 | 10279 ft | 306 kts | 133° |
| 2026-05-06 16:56 | 48.15025 | 11.87074 | 10497 ft | 328 kts | 131° |
| 2026-05-06 16:56 | 48.13554 | 11.89811 | 10919 ft | 340 kts | 132° |
| 2026-05-06 16:56 | 48.12043 | 11.92574 | 11566 ft | 345 kts | 133° |
| 2026-05-06 16:56 | 48.10495 | 11.95378 | 12265 ft | 350 kts | 133° |
| 2026-05-06 16:57 | 48.08945 | 11.98170 | 12949 ft | 354 kts | 133° |
| 2026-05-06 16:57 | 48.07309 | 12.00952 | 13575 ft | 355 kts | 140° |
| 2026-05-06 16:57 | 48.05374 | 12.03274 | 14179 ft | 354 kts | 150° |
| 2026-05-06 16:57 | 48.03332 | 12.05349 | 14805 ft | 357 kts | 150° |
| 2026-05-06 16:58 | 48.01289 | 12.07427 | 15429 ft | 359 kts | 150° |
| 2026-05-06 16:58 | 47.99202 | 12.09550 | 16052 ft | 361 kts | 151° |
| 2026-05-06 16:58 | 47.97121 | 12.11672 | 16663 ft | 364 kts | 151° |
| 2026-05-06 16:58 | 47.95026 | 12.13759 | 17250 ft | 364 kts | 155° |
| 2026-05-06 16:59 | 47.92755 | 12.15367 | 17858 ft | 360 kts | 165° |
| 2026-05-06 16:59 | 47.90344 | 12.16297 | 18407 ft | 357 kts | 174° |
| 2026-05-06 16:59 | 47.87888 | 12.16936 | 18933 ft | 360 kts | 174° |
| 2026-05-06 16:59 | 47.85418 | 12.17581 | 19457 ft | 362 kts | 174° |
| 2026-05-06 17:00 | 47.82925 | 12.18236 | 19973 ft | 365 kts | 175° |
| 2026-05-06 17:00 | 47.80405 | 12.18903 | 20458 ft | 369 kts | 175° |
| 2026-05-06 17:00 | 47.77871 | 12.19580 | 21005 ft | 371 kts | 175° |
| 2026-05-06 17:00 | 47.75327 | 12.20259 | 21496 ft | 374 kts | 175° |
| 2026-05-06 17:01 | 47.72755 | 12.20944 | 21947 ft | 377 kts | 175° |
| 2026-05-06 17:01 | 47.70171 | 12.21630 | 22391 ft | 379 kts | 175° |
| 2026-05-06 17:01 | 47.67558 | 12.22322 | 22846 ft | 382 kts | 175° |
| 2026-05-06 17:01 | 47.64933 | 12.23012 | 23307 ft | 385 kts | 176° |
| 2026-05-06 17:02 | 47.62271 | 12.23341 | 23696 ft | 383 kts | 182° |
| 2026-05-06 17:02 | 47.59633 | 12.23492 | 24097 ft | 385 kts | 183° |
| 2026-05-06 17:02 | 47.56920 | 12.23647 | 24541 ft | 386 kts | 183° |
| 2026-05-06 17:02 | 47.54228 | 12.23802 | 24935 ft | 388 kts | 183° |
| 2026-05-06 17:03 | 47.51524 | 12.23958 | 25327 ft | 390 kts | 183° |
| 2026-05-06 17:03 | 47.48811 | 12.24117 | 25706 ft | 391 kts | 183° |
| 2026-05-06 17:03 | 47.46087 | 12.24279 | 26076 ft | 392 kts | 183° |
| 2026-05-06 17:03 | 47.43349 | 12.24441 | 26437 ft | 394 kts | 183° |
| 2026-05-06 17:04 | 47.40608 | 12.24602 | 26782 ft | 396 kts | 184° |
| 2026-05-06 17:04 | 47.37861 | 12.24764 | 27165 ft | 397 kts | 183° |
| 2026-05-06 17:04 | 47.35062 | 12.24930 | 27519 ft | 398 kts | 184° |
| 2026-05-06 17:04 | 47.32314 | 12.25090 | 27839 ft | 401 kts | 184° |
| 2026-05-06 17:05 | 47.29519 | 12.25251 | 28183 ft | 402 kts | 184° |
| 2026-05-06 17:05 | 47.26714 | 12.25418 | 28478 ft | 404 kts | 184° |
| 2026-05-06 17:05 | 47.23900 | 12.25585 | 28764 ft | 405 kts | 184° |
| 2026-05-06 17:05 | 47.21076 | 12.25748 | 29080 ft | 407 kts | 184° |
| 2026-05-06 17:06 | 47.18238 | 12.25907 | 29420 ft | 409 kts | 184° |
| 2026-05-06 17:06 | 47.15395 | 12.26069 | 29757 ft | 411 kts | 184° |
| 2026-05-06 17:06 | 47.12545 | 12.26238 | 30000 ft | 411 kts | 184° |
| 2026-05-06 17:06 | 47.09699 | 12.26408 | 30140 ft | 411 kts | 184° |
| 2026-05-06 17:07 | 47.06835 | 12.26579 | 30439 ft | 410 kts | 184° |
| 2026-05-06 17:07 | 47.03996 | 12.26748 | 30744 ft | 408 kts | 184° |
| 2026-05-06 17:07 | 47.01156 | 12.26914 | 31032 ft | 408 kts | 184° |
| 2026-05-06 17:07 | 46.98314 | 12.27079 | 31290 ft | 408 kts | 184° |
| 2026-05-06 17:08 | 46.95480 | 12.27242 | 31566 ft | 408 kts | 184° |
| 2026-05-06 17:08 | 46.92642 | 12.27404 | 31799 ft | 407 kts | 184° |
| 2026-05-06 17:08 | 46.89833 | 12.27568 | 32158 ft | 404 kts | 184° |
| 2026-05-06 17:08 | 46.87025 | 12.27735 | 32439 ft | 403 kts | 184° |
| 2026-05-06 17:09 | 46.84229 | 12.27899 | 32756 ft | 402 kts | 184° |
| 2026-05-06 17:09 | 46.81437 | 12.28085 | 33066 ft | 403 kts | 182° |
| 2026-05-06 17:09 | 46.78652 | 12.28756 | 33310 ft | 411 kts | 173° |
| 2026-05-06 17:09 | 46.75886 | 12.29830 | 33531 ft | 411 kts | 172° |
| 2026-05-06 17:10 | 46.73119 | 12.30905 | 33814 ft | 411 kts | 172° |
| 2026-05-06 17:10 | 46.70363 | 12.31981 | 34085 ft | 410 kts | 172° |
| 2026-05-06 17:10 | 46.67615 | 12.33058 | 34302 ft | 409 kts | 172° |
| 2026-05-06 17:10 | 46.64863 | 12.34134 | 34462 ft | 409 kts | 172° |
| 2026-05-06 17:11 | 46.62110 | 12.35209 | 34601 ft | 410 kts | 172° |
| 2026-05-06 17:11 | 46.59344 | 12.36285 | 34798 ft | 412 kts | 172° |
| 2026-05-06 17:11 | 46.56574 | 12.37356 | 34990 ft | 413 kts | 172° |
| 2026-05-06 17:11 | 46.53805 | 12.38433 | 35206 ft | 413 kts | 172° |
| 2026-05-06 17:12 | 46.51024 | 12.39519 | 35350 ft | 413 kts | 172° |
| 2026-05-06 17:12 | 46.48250 | 12.40597 | 35500 ft | 414 kts | 172° |
| 2026-05-06 17:12 | 46.45463 | 12.41677 | 35669 ft | 414 kts | 172° |
| 2026-05-06 17:12 | 46.42675 | 12.42757 | 35820 ft | 414 kts | 171° |
| 2026-05-06 17:13 | 46.39899 | 12.43833 | 35937 ft | 412 kts | 171° |
| 2026-05-06 17:13 | 46.37130 | 12.44907 | 36084 ft | 413 kts | 171° |
| 2026-05-06 17:13 | 46.34346 | 12.45980 | 36218 ft | 415 kts | 171° |
| 2026-05-06 17:13 | 46.31552 | 12.47052 | 36348 ft | 415 kts | 172° |
| 2026-05-06 17:14 | 46.28753 | 12.48126 | 36519 ft | 416 kts | 171° |
| 2026-05-06 17:14 | 46.23135 | 12.50277 | 36779 ft | 418 kts | 171° |
| 2026-05-06 17:14 | 46.20323 | 12.51355 | 36893 ft | 420 kts | 171° |
| 2026-05-06 17:15 | 46.17486 | 12.52445 | 36916 ft | 422 kts | 171° |
| 2026-05-06 17:15 | 46.11792 | 12.54627 | 36919 ft | 423 kts | 171° |
| 2026-05-06 17:16 | 46.06105 | 12.56804 | 36923 ft | 424 kts | 171° |
| 2026-05-06 17:16 | 46.00415 | 12.58978 | 36921 ft | 423 kts | 171° |
| 2026-05-06 17:17 | 45.94785 | 12.61122 | 36920 ft | 424 kts | 171° |
| 2026-05-06 17:17 | 45.89017 | 12.63311 | 36915 ft | 423 kts | 171° |
| 2026-05-06 17:18 | 45.83285 | 12.65483 | 36911 ft | 423 kts | 172° |
| 2026-05-06 17:18 | 45.77595 | 12.67624 | 36881 ft | 423 kts | 172° |
| 2026-05-06 17:19 | 45.71886 | 12.69764 | 36873 ft | 425 kts | 171° |
| 2026-05-06 17:19 | 45.66169 | 12.71927 | 36872 ft | 426 kts | 171° |
| 2026-05-06 17:20 | 45.60441 | 12.74086 | 36884 ft | 425 kts | 172° |
| 2026-05-06 17:20 | 45.54715 | 12.76231 | 36889 ft | 425 kts | 172° |
| 2026-05-06 17:21 | 45.49032 | 12.78357 | 36890 ft | 425 kts | 172° |
| 2026-05-06 17:21 | 45.43313 | 12.80489 | 36877 ft | 424 kts | 172° |
| 2026-05-06 17:22 | 45.37574 | 12.82620 | 36891 ft | 424 kts | 172° |
| 2026-05-06 17:22 | 45.31867 | 12.84752 | 36893 ft | 424 kts | 172° |
| 2026-05-06 17:23 | 45.26196 | 12.86860 | 36869 ft | 424 kts | 172° |
| 2026-05-06 17:23 | 45.20481 | 12.88969 | 36876 ft | 424 kts | 172° |
| 2026-05-06 17:24 | 45.14762 | 12.91081 | 36886 ft | 425 kts | 172° |
| 2026-05-06 17:24 | 45.09003 | 12.93201 | 36890 ft | 424 kts | 172° |
| 2026-05-06 17:25 | 45.03328 | 12.95289 | 36872 ft | 424 kts | 172° |
| 2026-05-06 17:25 | 44.97617 | 12.97385 | 36879 ft | 425 kts | 172° |
| 2026-05-06 17:26 | 44.91860 | 12.99493 | 36883 ft | 424 kts | 172° |
| 2026-05-06 17:26 | 44.87107 | 13.01228 | 36888 ft | 424 kts | 172° |
| 2026-05-06 17:27 | 44.81388 | 13.03312 | 36862 ft | 425 kts | 172° |
| 2026-05-06 17:27 | 44.75667 | 13.05397 | 36877 ft | 425 kts | 172° |
| 2026-05-06 17:28 | 44.69941 | 13.07474 | 36885 ft | 426 kts | 172° |
| 2026-05-06 17:28 | 44.64212 | 13.09556 | 36890 ft | 426 kts | 172° |
| 2026-05-06 17:29 | 44.58467 | 13.11640 | 36898 ft | 426 kts | 172° |
| 2026-05-06 17:29 | 44.52731 | 13.13713 | 36906 ft | 426 kts | 172° |
| 2026-05-06 17:30 | 44.47005 | 13.15775 | 36909 ft | 426 kts | 172° |
| 2026-05-06 17:30 | 44.41264 | 13.17837 | 36911 ft | 426 kts | 172° |
| 2026-05-06 17:31 | 44.35529 | 13.19892 | 36904 ft | 425 kts | 172° |
| 2026-05-06 17:31 | 44.29801 | 13.21943 | 36909 ft | 425 kts | 172° |
| 2026-05-06 17:32 | 44.24072 | 13.23993 | 36918 ft | 425 kts | 172° |
| 2026-05-06 17:32 | 44.18339 | 13.26045 | 36904 ft | 425 kts | 172° |
| 2026-05-06 17:33 | 44.12607 | 13.28086 | 36920 ft | 425 kts | 172° |
| 2026-05-06 17:33 | 44.06867 | 13.30123 | 36924 ft | 425 kts | 172° |
| 2026-05-06 17:34 | 44.01132 | 13.32156 | 36925 ft | 425 kts | 172° |
| 2026-05-06 17:34 | 43.95396 | 13.34179 | 36932 ft | 425 kts | 172° |
| 2026-05-06 17:35 | 43.89676 | 13.36210 | 36942 ft | 425 kts | 172° |
| 2026-05-06 17:35 | 43.83939 | 13.38236 | 36946 ft | 425 kts | 172° |
| 2026-05-06 17:36 | 43.75350 | 13.41248 | 36939 ft | 425 kts | 172° |
| 2026-05-06 17:36 | 43.69622 | 13.43264 | 36945 ft | 425 kts | 172° |
| 2026-05-06 17:37 | 43.63885 | 13.45272 | 36947 ft | 425 kts | 173° |
| 2026-05-06 17:37 | 43.58165 | 13.47291 | 36920 ft | 425 kts | 172° |
| 2026-05-06 17:38 | 43.52522 | 13.49778 | 36911 ft | 430 kts | 168° |
| 2026-05-06 17:38 | 43.46896 | 13.52618 | 36915 ft | 431 kts | 168° |
| 2026-05-06 17:39 | 43.41260 | 13.55424 | 36905 ft | 430 kts | 168° |
| 2026-05-06 17:39 | 43.35609 | 13.58119 | 36923 ft | 430 kts | 169° |
| 2026-05-06 17:40 | 43.29942 | 13.60785 | 36930 ft | 430 kts | 169° |
| 2026-05-06 17:40 | 43.24275 | 13.63463 | 36937 ft | 431 kts | 169° |
| 2026-05-06 17:41 | 43.18609 | 13.66139 | 36930 ft | 431 kts | 169° |
| 2026-05-06 17:41 | 43.12945 | 13.68805 | 36934 ft | 431 kts | 169° |
| 2026-05-06 17:42 | 43.07274 | 13.71474 | 36944 ft | 431 kts | 169° |
| 2026-05-06 17:42 | 43.01604 | 13.74139 | 36947 ft | 430 kts | 169° |
| 2026-05-06 17:43 | 42.95944 | 13.76792 | 36934 ft | 430 kts | 168° |
| 2026-05-06 17:43 | 42.90280 | 13.79442 | 36942 ft | 430 kts | 168° |
| 2026-05-06 17:44 | 42.84613 | 13.82092 | 36944 ft | 430 kts | 169° |
| 2026-05-06 17:44 | 42.78956 | 13.84726 | 36945 ft | 430 kts | 169° |
| 2026-05-06 17:45 | 42.73286 | 13.87360 | 36915 ft | 430 kts | 169° |
| 2026-05-06 17:45 | 42.67624 | 13.89990 | 36923 ft | 430 kts | 169° |
| 2026-05-06 17:46 | 42.61962 | 13.92615 | 36935 ft | 430 kts | 169° |
| 2026-05-06 17:46 | 42.56294 | 13.95233 | 36922 ft | 430 kts | 169° |
| 2026-05-06 17:47 | 42.50624 | 13.97849 | 36931 ft | 431 kts | 169° |
| 2026-05-06 17:47 | 42.44985 | 14.00454 | 36943 ft | 431 kts | 169° |
| 2026-05-06 17:48 | 42.39298 | 14.03065 | 36956 ft | 430 kts | 169° |
| 2026-05-06 17:48 | 42.33629 | 14.05665 | 36939 ft | 430 kts | 169° |
| 2026-05-06 17:49 | 42.27958 | 14.08253 | 36923 ft | 430 kts | 169° |
| 2026-05-06 17:49 | 42.22293 | 14.10840 | 36935 ft | 430 kts | 169° |
| 2026-05-06 17:50 | 42.16631 | 14.13437 | 36967 ft | 430 kts | 168° |
| 2026-05-06 17:50 | 42.11020 | 14.16297 | 36960 ft | 432 kts | 166° |
| 2026-05-06 17:51 | 42.05446 | 14.19415 | 36962 ft | 434 kts | 165° |
| 2026-05-06 17:51 | 41.99868 | 14.22507 | 36921 ft | 433 kts | 166° |
| 2026-05-06 17:52 | 41.94266 | 14.25530 | 36945 ft | 435 kts | 166° |
| 2026-05-06 17:52 | 41.88658 | 14.28517 | 36941 ft | 434 kts | 167° |
| 2026-05-06 17:53 | 41.83037 | 14.31501 | 36946 ft | 434 kts | 166° |
| 2026-05-06 17:53 | 41.77422 | 14.34505 | 36964 ft | 435 kts | 166° |
| 2026-05-06 17:54 | 41.71791 | 14.37502 | 36965 ft | 437 kts | 167° |
| 2026-05-06 17:54 | 41.66104 | 14.40510 | 36979 ft | 438 kts | 166° |
| 2026-05-06 17:55 | 41.60441 | 14.43534 | 36990 ft | 438 kts | 165° |
| 2026-05-06 17:55 | 41.54779 | 14.46551 | 36999 ft | 438 kts | 166° |
| 2026-05-06 17:56 | 41.49097 | 14.49523 | 37019 ft | 439 kts | 167° |
| 2026-05-06 17:56 | 41.43364 | 14.52284 | 37004 ft | 438 kts | 168° |
| 2026-05-06 17:57 | 41.37648 | 14.54967 | 36994 ft | 436 kts | 168° |
| 2026-05-06 17:57 | 41.31919 | 14.57686 | 36998 ft | 437 kts | 167° |
| 2026-05-06 17:58 | 41.26205 | 14.60437 | 37000 ft | 438 kts | 167° |
| 2026-05-06 17:58 | 41.20430 | 14.63207 | 37005 ft | 438 kts | 167° |
| 2026-05-06 17:59 | 41.14699 | 14.65944 | 37009 ft | 438 kts | 167° |
| 2026-05-06 17:59 | 41.08961 | 14.68673 | 37013 ft | 438 kts | 167° |
| 2026-05-06 18:00 | 41.03221 | 14.71389 | 37009 ft | 439 kts | 167° |
| 2026-05-06 18:00 | 40.97467 | 14.74121 | 37021 ft | 439 kts | 167° |
| 2026-05-06 18:01 | 40.91726 | 14.76860 | 37025 ft | 439 kts | 167° |
| 2026-05-06 18:01 | 40.85982 | 14.79585 | 37030 ft | 439 kts | 167° |
| 2026-05-06 18:02 | 40.80227 | 14.82296 | 37004 ft | 439 kts | 167° |
| 2026-05-06 18:02 | 40.74467 | 14.85006 | 37008 ft | 439 kts | 167° |
| 2026-05-06 18:03 | 40.68710 | 14.87712 | 37012 ft | 439 kts | 167° |
| 2026-05-06 18:03 | 40.62955 | 14.90406 | 37019 ft | 440 kts | 167° |
| 2026-05-06 18:04 | 40.57151 | 14.93098 | 36987 ft | 440 kts | 167° |
| 2026-05-06 18:04 | 40.51358 | 14.95763 | 36997 ft | 441 kts | 167° |
| 2026-05-06 18:05 | 40.46536 | 14.97962 | 36905 ft | 442 kts | 167° |
| 2026-05-06 18:05 | 40.43648 | 14.99283 | 36628 ft | 442 kts | 167° |
| 2026-05-06 18:05 | 40.40745 | 15.00618 | 36347 ft | 441 kts | 167° |
| 2026-05-06 18:06 | 40.37840 | 15.01953 | 35566 ft | 444 kts | 167° |
| 2026-05-06 18:06 | 40.34919 | 15.03294 | 34722 ft | 446 kts | 167° |
| 2026-05-06 18:06 | 40.31991 | 15.04635 | 33855 ft | 448 kts | 167° |
| 2026-05-06 18:06 | 40.29032 | 15.05987 | 32903 ft | 450 kts | 167° |
| 2026-05-06 18:07 | 40.26071 | 15.07340 | 32043 ft | 450 kts | 167° |
| 2026-05-06 18:07 | 40.23149 | 15.08679 | 31501 ft | 443 kts | 167° |
| 2026-05-06 18:07 | 40.20253 | 15.10009 | 30887 ft | 439 kts | 167° |
| 2026-05-06 18:07 | 40.17381 | 15.11324 | 30284 ft | 435 kts | 167° |
| 2026-05-06 18:08 | 40.14529 | 15.12626 | 29642 ft | 432 kts | 167° |
| 2026-05-06 18:08 | 40.11700 | 15.13911 | 29048 ft | 427 kts | 167° |
| 2026-05-06 18:08 | 40.08906 | 15.15174 | 28494 ft | 423 kts | 167° |
| 2026-05-06 18:08 | 40.06144 | 15.16422 | 27900 ft | 419 kts | 167° |
| 2026-05-06 18:09 | 40.03388 | 15.17670 | 27347 ft | 415 kts | 167° |
| 2026-05-06 18:09 | 40.00672 | 15.18901 | 26790 ft | 412 kts | 167° |
| 2026-05-06 18:09 | 39.97972 | 15.20129 | 26245 ft | 409 kts | 167° |
| 2026-05-06 18:09 | 39.95380 | 15.21304 | 25725 ft | 406 kts | 167° |
| 2026-05-06 18:10 | 39.92640 | 15.22544 | 25182 ft | 403 kts | 167° |
| 2026-05-06 18:10 | 39.90002 | 15.23738 | 24683 ft | 400 kts | 166° |
| 2026-05-06 18:10 | 39.87385 | 15.24917 | 24178 ft | 397 kts | 167° |
| 2026-05-06 18:10 | 39.84776 | 15.26091 | 23690 ft | 395 kts | 167° |
| 2026-05-06 18:11 | 39.82185 | 15.27256 | 23162 ft | 392 kts | 167° |
| 2026-05-06 18:11 | 39.79621 | 15.28405 | 22705 ft | 388 kts | 167° |
| 2026-05-06 18:11 | 39.77077 | 15.29548 | 22241 ft | 384 kts | 166° |
| 2026-05-06 18:11 | 39.74572 | 15.30680 | 21792 ft | 380 kts | 166° |
| 2026-05-06 18:12 | 39.72120 | 15.31949 | 21343 ft | 381 kts | 158° |
| 2026-05-06 18:12 | 39.69865 | 15.33780 | 20851 ft | 385 kts | 147° |
| 2026-05-06 18:12 | 39.67819 | 15.36038 | 20399 ft | 385 kts | 144° |
| 2026-05-06 18:12 | 39.65796 | 15.38305 | 19896 ft | 384 kts | 144° |
| 2026-05-06 18:13 | 39.63775 | 15.40552 | 19411 ft | 382 kts | 144° |
| 2026-05-06 18:13 | 39.61760 | 15.42791 | 18897 ft | 381 kts | 144° |
| 2026-05-06 18:13 | 39.59745 | 15.45033 | 18391 ft | 381 kts | 144° |
| 2026-05-06 18:13 | 39.57737 | 15.47267 | 17825 ft | 380 kts | 144° |
| 2026-05-06 18:14 | 39.55741 | 15.49493 | 17324 ft | 375 kts | 144° |
| 2026-05-06 18:14 | 39.53780 | 15.51671 | 16845 ft | 372 kts | 144° |
| 2026-05-06 18:14 | 39.51813 | 15.53855 | 16339 ft | 370 kts | 144° |
| 2026-05-06 18:14 | 39.49874 | 15.56005 | 15852 ft | 368 kts | 144° |
| 2026-05-06 18:15 | 39.47907 | 15.58178 | 15354 ft | 366 kts | 144° |
| 2026-05-06 18:15 | 39.45996 | 15.60284 | 14868 ft | 365 kts | 144° |
| 2026-05-06 18:15 | 39.44069 | 15.62409 | 14369 ft | 363 kts | 144° |
| 2026-05-06 18:15 | 39.42150 | 15.64528 | 13869 ft | 362 kts | 144° |
| 2026-05-06 18:16 | 39.40242 | 15.66634 | 13325 ft | 360 kts | 143° |
| 2026-05-06 18:16 | 39.38324 | 15.68754 | 12824 ft | 356 kts | 143° |
| 2026-05-06 18:16 | 39.36451 | 15.70820 | 12313 ft | 350 kts | 143° |
| 2026-05-06 18:16 | 39.34623 | 15.72833 | 11809 ft | 342 kts | 143° |
| 2026-05-06 18:17 | 39.32826 | 15.74807 | 11316 ft | 335 kts | 143° |
| 2026-05-06 18:17 | 39.31068 | 15.76735 | 10826 ft | 328 kts | 142° |
| 2026-05-06 18:17 | 39.29346 | 15.78626 | 10456 ft | 319 kts | 142° |
| 2026-05-06 18:17 | 39.27704 | 15.80434 | 10335 ft | 302 kts | 142° |
| 2026-05-06 18:18 | 39.26136 | 15.82155 | 10059 ft | 291 kts | 142° |
| 2026-05-06 18:18 | 39.24607 | 15.83822 | 9852 ft | 286 kts | 142° |
| 2026-05-06 18:18 | 39.23087 | 15.85474 | 9723 ft | 286 kts | 142° |
| 2026-05-06 18:18 | 39.21564 | 15.87130 | 9467 ft | 285 kts | 143° |
| 2026-05-06 18:19 | 39.19930 | 15.88530 | 9095 ft | 280 kts | 156° |
| 2026-05-06 18:19 | 39.18104 | 15.89353 | 8726 ft | 277 kts | 166° |
| 2026-05-06 18:19 | 39.16275 | 15.90007 | 8363 ft | 276 kts | 166° |
| 2026-05-06 18:19 | 39.14421 | 15.90677 | 7993 ft | 275 kts | 165° |
| 2026-05-06 18:20 | 39.12570 | 15.91348 | 7620 ft | 273 kts | 165° |
| 2026-05-06 18:20 | 39.10747 | 15.92010 | 7246 ft | 272 kts | 165° |
| 2026-05-06 18:20 | 39.08953 | 15.92659 | 6898 ft | 270 kts | 165° |
| 2026-05-06 18:20 | 39.07154 | 15.93309 | 6542 ft | 267 kts | 165° |
| 2026-05-06 18:21 | 39.05373 | 15.93952 | 6154 ft | 264 kts | 164° |
| 2026-05-06 18:21 | 39.03615 | 15.94593 | 5795 ft | 261 kts | 163° |
| 2026-05-06 18:21 | 39.01903 | 15.95325 | 5435 ft | 257 kts | 160° |
| 2026-05-06 18:21 | 39.00238 | 15.96124 | 5081 ft | 253 kts | 160° |
| 2026-05-06 18:22 | 38.98606 | 15.96933 | 4735 ft | 250 kts | 159° |
| 2026-05-06 18:22 | 38.96999 | 15.97732 | 4379 ft | 246 kts | 159° |
| 2026-05-06 18:22 | 38.95397 | 15.98524 | 4049 ft | 242 kts | 159° |
| 2026-05-06 18:22 | 38.93957 | 15.99564 | 3726 ft | 236 kts | 135° |
| 2026-05-06 18:23 | 38.93184 | 16.01355 | 3401 ft | 229 kts | 100° |
| 2026-05-06 18:23 | 38.93084 | 16.03380 | 3092 ft | 225 kts | 95° |
| 2026-05-06 18:23 | 38.92896 | 16.05365 | 2771 ft | 223 kts | 99° |
| 2026-05-06 18:23 | 38.92643 | 16.07299 | 2465 ft | 218 kts | 100° |
| 2026-05-06 18:24 | 38.92384 | 16.09200 | 2163 ft | 212 kts | 100° |
| 2026-05-06 18:24 | 38.92139 | 16.11028 | 1880 ft | 203 kts | 100° |
| 2026-05-06 18:24 | 38.91915 | 16.12761 | 1603 ft | 190 kts | 99° |
| 2026-05-06 18:24 | 38.91713 | 16.14371 | 1327 ft | 175 kts | 99° |
| 2026-05-06 18:25 | 38.91531 | 16.15849 | 1108 ft | 160 kts | 98° |
| 2026-05-06 18:25 | 38.91370 | 16.17190 | 936 ft | 146 kts | 99° |
| 2026-05-06 18:25 | 38.91220 | 16.18442 | 735 ft | 140 kts | 98° |
| 2026-05-06 18:25 | 38.91081 | 16.19658 | 551 ft | 136 kts | 97° |
| 2026-05-06 18:26 | 38.90927 | 16.20845 | 385 ft | 134 kts | 97° |
| 2026-05-06 18:26 | 38.90787 | 16.22019 | 223 ft | 132 kts | 95° |
| 2026-05-06 18:26 | 38.90660 | 16.23175 | 66 ft | 129 kts | 95° |
| 2026-05-06 18:26 | 38.90544 | 16.24203 | 27 ft | 93 kts | 98° |
| 2026-05-06 18:27 | 38.90477 | 16.24782 | 33 ft | 42 kts | 98° |
| 2026-05-06 18:27 | 38.90439 | 16.25118 | 35 ft | 36 kts | 98° |
| 2026-05-06 18:27 | 38.90403 | 16.25416 | 33 ft | 32 kts | 99° |
| 2026-05-06 18:27 | 38.90422 | 16.25556 | 32 ft | 12 kts | 31° |
| 2026-05-06 18:28 | 38.90504 | 16.25531 | 33 ft | 12 kts | 321° |
| 2026-05-06 18:28 | 38.90559 | 16.25471 | 35 ft | 9 kts | 316° |
| 2026-05-06 18:28 | 38.90596 | 16.25410 | 33 ft | 9 kts | 305° |
| 2026-05-06 18:28 | 38.90633 | 16.25317 | 33 ft | 14 kts | 287° |
| 2026-05-06 18:29 | 38.90650 | 16.25196 | 34 ft | 13 kts | 278° |
| 2026-05-06 18:29 | 38.90663 | 16.25084 | 33 ft | 12 kts | 278° |
| 2026-05-06 18:29 | 38.90676 | 16.24977 | 33 ft | 12 kts | 278° |
| 2026-05-06 18:29 | 38.90688 | 16.24878 | 32 ft | 11 kts | 278° |
| 2026-05-06 18:30 | 38.90697 | 16.24787 | 32 ft | 10 kts | 280° |
| 2026-05-06 18:30 | 38.90708 | 16.24703 | 32 ft | 9 kts | 281° |
| 2026-05-06 18:30 | 38.90722 | 16.24628 | 32 ft | 8 kts | 295° |
| 2026-05-06 18:30 | 38.90762 | 16.24585 | 32 ft | 7 kts | 336° |
| 2026-05-06 18:31 | 38.90804 | 16.24586 | 32 ft | 6 kts | 9° |
| 2026-05-06 18:31 | 38.90840 | 16.24593 | 32 ft | 5 kts | 9° |
| 2026-05-06 18:31 | 38.90854 | 16.24601 | 32 ft | 0 kts | 35° |
| 2026-05-06 18:32 | 38.90857 | 16.24603 | 32 ft | 1 kts | 31° |
| 2026-05-06 18:32 | 38.90859 | 16.24606 | 32 ft | 0 kts | 38° |